Markham, Washington
Current Conditions -  °F | °C
As of 5:01 AM on Wednesday 22 Oct 2014 (Local Time) from KHQM Reporting Station
Haze Haze  
Wind Chill: 59°   Ceiling: 1900
Heat Index: 59°   Visibility: 6mi
Dew Point: 57°   Wind: 12mph
Humidity: 93%   Direction: 180°S
Pressure: 29.63"   Gusts: NA
Location:  47.1445°N, 123.771°W
Report Text: KHQM 221201Z AUTO 18010KT 6SM BR FEW008 BKN019 OVC050 15/14 A2963 RMK AO2 RAE1158 P0000 T01500139
Loading
Personal Weather Stations






























Interactive Weather Map
Tropical Storm Tracking
New forecast layout! Learn more

10-Day Weather Forecast

Advertisements
Track Severe Weather on mobile